Time;durP1;ratioP1;P1;durP2;ratioP2;P2;SDS_P1;SDS_P2;PMS_P1;PMS_P2;Temp;Humidity;BMP_temperature;BMP_pressure;BME280_temperature;BME280_humidity;BME280_pressure;Samples;Min_cycle;Max_cycle;Signal;HPM_P1;HPM_P2
2022/09/04 00:00:11;;;;;;;6.00;3.20;;;19.90;89.20;;;;;;5036989;28;20218;-79
2022/09/04 00:02:51;;;;;;;6.20;3.00;;;19.90;89.30;;;;;;5037000;28;20210;-79
2022/09/04 00:05:28;;;;;;;5.05;3.08;;;19.90;89.30;;;;;;5034544;28;20194;-78
2022/09/04 00:08:18;;;;;;;5.47;3.10;;;19.90;89.20;;;;;;5040051;28;20203;-78
2022/09/04 00:10:54;;;;;;;4.70;2.77;;;20.00;89.30;;;;;;5037396;28;20187;-78
2022/09/04 00:13:26;;;;;;;4.30;3.00;;;20.00;89.30;;;;;;5036573;28;20652;-79
2022/09/04 00:16:01;;;;;;;5.60;3.22;;;20.00;89.30;;;;;;5036528;28;20195;-79
2022/09/04 00:18:35;;;;;;;3.80;2.80;;;20.00;89.30;;;;;;5041579;28;20194;-79
2022/09/04 00:21:14;;;;;;;4.60;3.10;;;20.00;89.30;;;;;;5035474;28;20206;-79
2022/09/04 00:23:48;;;;;;;5.53;3.00;;;20.00;89.30;;;;;;5035471;28;20202;-79
2022/09/04 00:26:38;;;;;;;3.92;2.50;;;19.90;89.30;;;;;;5036588;28;20187;-78
2022/09/04 00:29:12;;;;;;;5.03;2.80;;;20.00;89.40;;;;;;5040110;28;20941;-78
2022/09/04 00:31:48;;;;;;;3.83;2.60;;;19.90;89.30;;;;;;5037072;28;20186;-78
2022/09/04 00:34:33;;;;;;;6.87;3.13;;;19.90;89.30;;;;;;5036206;28;20194;-78
2022/09/04 00:37:06;;;;;;;6.57;2.80;;;19.90;89.30;;;;;;5038176;28;20183;-79
2022/09/04 00:39:40;;;;;;;4.50;2.40;;;19.80;89.30;;;;;;5039437;28;20245;-79
2022/09/04 00:42:27;;;;;;;5.57;2.60;;;19.80;89.40;;;;;;5035906;28;20646;-78
2022/09/04 00:45:13;;;;;;;5.03;3.08;;;19.80;89.40;;;;;;5036088;28;20198;-79
2022/09/04 00:48:10;;;;;;;4.33;2.70;;;19.80;89.40;;;;;;5035550;28;20195;-78
2022/09/04 00:50:58;;;;;;;6.17;3.03;;;19.70;89.50;;;;;;5033390;28;20262;-79
2022/09/04 00:53:45;;;;;;;7.30;2.60;;;19.80;89.60;;;;;;5014970;28;20199;-78
2022/09/04 00:56:34;;;;;;;4.23;3.00;;;19.70;89.60;;;;;;5035280;28;20199;-78
2022/09/04 00:59:11;;;;;;;5.53;3.50;;;19.70;89.70;;;;;;5029655;28;20195;-79
2022/09/04 01:01:40;;;;;;;6.05;3.35;;;19.70;89.70;;;;;;5040460;28;20203;-78
2022/09/04 01:04:33;;;;;;;4.80;2.93;;;19.80;89.70;;;;;;5034589;28;20196;-78
2022/09/04 01:07:22;;;;;;;4.57;3.00;;;19.80;89.70;;;;;;5021899;28;20226;-79
2022/09/04 01:10:08;;;;;;;7.10;3.20;;;19.80;89.70;;;;;;5037819;28;20204;-79
2022/09/04 01:12:44;;;;;;;6.72;3.10;;;19.70;89.70;;;;;;5037938;28;20187;-79
2022/09/04 01:15:18;;;;;;;4.93;3.03;;;19.80;89.60;;;;;;5044491;28;20202;-79
2022/09/04 01:17:58;;;;;;;4.25;2.40;;;19.80;89.50;;;;;;5036831;28;20205;-79
2022/09/04 01:20:44;;;;;;;4.90;2.78;;;19.70;89.40;;;;;;5040893;28;20195;-79
2022/09/04 01:23:30;;;;;;;4.32;2.35;;;19.70;89.40;;;;;;5037760;28;20195;-79
2022/09/04 01:26:09;;;;;;;5.18;2.63;;;19.70;89.40;;;;;;5041358;28;20205;-77
2022/09/04 01:28:50;;;;;;;6.20;3.13;;;19.70;89.40;;;;;;5035344;28;20876;-78
2022/09/04 01:31:26;;;;;;;4.72;2.88;;;19.70;89.40;;;;;;5035309;28;20187;-78
2022/09/04 01:34:09;;;;;;;5.32;3.00;;;19.70;89.40;;;;;;5038230;28;20187;-78
2022/09/04 01:36:45;;;;;;;4.65;2.97;;;19.70;89.30;;;;;;5037247;28;20199;-78
2022/09/04 01:39:14;;;;;;;6.95;2.72;;;19.70;89.30;;;;;;5037327;28;20223;-79
2022/09/04 01:41:49;;;;;;;6.63;3.10;;;19.70;89.20;;;;;;5042902;28;20257;-78
2022/09/04 01:44:18;;;;;;;3.50;2.20;;;19.70;89.20;;;;;;5035593;28;20205;-78
2022/09/04 01:46:56;;;;;;;8.68;2.80;;;19.70;89.00;;;;;;5043334;28;20199;-78
2022/09/04 01:49:33;;;;;;;3.67;2.27;;;19.70;88.90;;;;;;5031450;28;20202;-78
2022/09/04 01:52:11;;;;;;;4.65;2.25;;;19.70;88.70;;;;;;5031043;28;20249;-78
2022/09/04 01:54:59;;;;;;;3.63;2.35;;;19.70;88.60;;;;;;5040981;28;20297;-78
2022/09/04 01:57:42;;;;;;;3.63;1.97;;;19.70;89.30;;;;;;5041164;28;20549;-76
2022/09/04 02:00:13;;;;;;;4.37;2.07;;;19.70;88.40;;;;;;5032297;28;20203;-76
2022/09/04 02:02:55;;;;;;;6.33;2.13;;;19.70;88.30;;;;;;5043348;28;20199;-76
2022/09/04 02:05:32;;;;;;;5.40;2.53;;;19.80;88.10;;;;;;5042847;28;20190;-77
2022/09/04 02:08:14;;;;;;;7.60;1.83;;;19.70;87.10;;;;;;5037622;28;20197;-76
2022/09/04 02:10:50;;;;;;;4.23;1.80;;;19.70;87.00;;;;;;5039095;28;20198;-77
2022/09/04 02:13:28;;;;;;;4.78;2.95;;;19.70;86.90;;;;;;5041175;28;20199;-78
2022/09/04 02:16:05;;;;;;;4.50;1.93;;;19.70;86.50;;;;;;5038642;28;20210;-77
2022/09/04 02:18:44;;;;;;;3.10;1.77;;;19.70;86.30;;;;;;5036242;28;20240;-78
2022/09/04 02:21:22;;;;;;;4.87;1.60;;;19.70;86.90;;;;;;5037348;28;20199;-77
2022/09/04 02:24:02;;;;;;;2.93;1.83;;;19.70;85.90;;;;;;5033986;28;20195;-76
2022/09/04 02:26:36;;;;;;;6.03;1.80;;;19.70;85.70;;;;;;5037257;28;20195;-77
2022/09/04 02:29:13;;;;;;;4.13;1.70;;;19.70;85.70;;;;;;5039528;28;20207;-78
2022/09/04 02:31:47;;;;;;;4.38;1.45;;;19.70;85.50;;;;;;5038349;28;20649;-77
2022/09/04 02:34:24;;;;;;;2.95;1.67;;;19.80;85.20;;;;;;5042696;28;20294;-78
2022/09/04 02:36:59;;;;;;;3.43;1.90;;;19.70;85.20;;;;;;5037761;28;20274;-76
2022/09/04 02:39:39;;;;;;;6.75;1.88;;;19.70;85.00;;;;;;5040152;28;20238;-78
2022/09/04 02:42:18;;;;;;;5.27;2.10;;;19.70;85.00;;;;;;5037688;28;20214;-77
2022/09/04 02:45:01;;;;;;;4.18;1.92;;;19.70;84.90;;;;;;5040326;28;20198;-77
2022/09/04 02:47:36;;;;;;;4.10;1.67;;;19.70;84.80;;;;;;5038394;28;20474;-77
2022/09/04 02:50:13;;;;;;;5.60;1.97;;;19.70;84.80;;;;;;5037235;28;20198;-77
2022/09/04 02:53:03;;;;;;;4.57;2.03;;;19.70;84.80;;;;;;5041373;28;20206;-77
2022/09/04 02:55:44;;;;;;;6.20;1.80;;;19.70;84.80;;;;;;5036777;28;20202;-76
2022/09/04 02:58:27;;;;;;;5.67;2.03;;;19.70;84.80;;;;;;5028760;28;20198;-76
2022/09/04 03:01:07;;;;;;;5.18;1.75;;;19.70;84.90;;;;;;5039152;28;20195;-77
2022/09/04 03:03:43;;;;;;;3.70;2.17;;;19.70;84.80;;;;;;5040588;28;20211;-77
2022/09/04 03:06:14;;;;;;;3.85;1.70;;;19.70;84.80;;;;;;5037827;28;20648;-76
2022/09/04 03:08:55;;;;;;;3.30;1.70;;;19.70;84.90;;;;;;5035288;28;20198;-77
2022/09/04 03:11:31;;;;;;;7.13;2.10;;;19.70;84.80;;;;;;5036449;28;20211;-77
2022/09/04 03:14:04;;;;;;;4.07;2.10;;;19.70;84.80;;;;;;5036870;28;20202;-75
2022/09/04 03:16:42;;;;;;;3.40;2.03;;;19.70;84.80;;;;;;5040670;28;20657;-77
2022/09/04 03:19:18;;;;;;;5.60;2.10;;;19.70;84.70;;;;;;5038948;28;20202;-78
2022/09/04 03:21:55;;;;;;;3.30;1.77;;;19.70;84.80;;;;;;5038597;28;20191;-77
2022/09/04 03:24:32;;;;;;;3.42;2.13;;;19.70;84.60;;;;;;5038687;28;20198;-77
2022/09/04 03:27:04;;;;;;;4.28;1.88;;;19.70;84.60;;;;;;5038158;28;20194;-77
2022/09/04 03:29:38;;;;;;;4.80;1.80;;;19.70;84.60;;;;;;5036122;28;20202;-77
2022/09/04 03:32:17;;;;;;;4.68;2.38;;;19.70;84.50;;;;;;5037527;28;20191;-77
2022/09/04 03:34:54;;;;;;;6.47;2.03;;;19.70;84.40;;;;;;5043243;28;20199;-77
2022/09/04 03:37:42;;;;;;;3.88;2.00;;;19.70;84.40;;;;;;5035192;28;20186;-77
2022/09/04 03:40:24;;;;;;;4.47;2.20;;;19.70;84.60;;;;;;5034318;28;20199;-77
2022/09/04 03:43:05;;;;;;;3.55;2.53;;;19.70;84.70;;;;;;5036190;28;20553;-76
2022/09/04 03:45:45;;;;;;;3.05;2.05;;;19.70;84.90;;;;;;5035775;28;20198;-77
2022/09/04 03:48:42;;;;;;;6.22;2.60;;;19.70;85.20;;;;;;5034197;28;20194;-78
2022/09/04 03:51:21;;;;;;;5.45;2.83;;;19.70;85.30;;;;;;5027092;28;20613;-77
2022/09/04 03:54:01;;;;;;;4.30;2.00;;;19.70;85.50;;;;;;5037838;28;20651;-77
2022/09/04 03:56:54;;;;;;;3.43;2.13;;;19.70;85.80;;;;;;5032410;28;20192;-77
2022/09/04 03:59:46;;;;;;;8.60;2.30;;;19.70;85.90;;;;;;5038318;28;20198;-77
2022/09/04 04:02:26;;;;;;;4.75;2.40;;;19.70;85.90;;;;;;5035969;28;20389;-77
2022/09/04 04:05:25;;;;;;;4.25;2.53;;;19.60;85.90;;;;;;5039430;28;20195;-77
2022/09/04 04:08:11;;;;;;;3.13;1.90;;;19.70;86.10;;;;;;5016426;28;20218;-76
2022/09/04 04:10:52;;;;;;;3.83;2.07;;;19.60;86.00;;;;;;5035180;28;20210;-77
2022/09/04 04:13:47;;;;;;;3.20;2.17;;;19.70;86.00;;;;;;5039843;28;20567;-76
2022/09/04 04:16:39;;;;;;;4.80;2.22;;;19.60;85.80;;;;;;5049964;28;20198;-77
2022/09/04 04:19:30;;;;;;;3.43;1.90;;;19.60;85.80;;;;;;5038680;28;20245;-76
2022/09/04 04:22:16;;;;;;;4.80;2.00;;;19.60;86.60;;;;;;5033409;28;20199;-76
2022/09/04 04:25:03;;;;;;;3.50;2.10;;;19.60;85.80;;;;;;5036714;28;20222;-77
2022/09/04 04:27:47;;;;;;;4.75;2.30;;;19.60;85.70;;;;;;5040757;28;20209;-77
2022/09/04 04:30:17;;;;;;;4.65;2.00;;;19.60;85.80;;;;;;5033172;28;20193;-77
2022/09/04 04:32:58;;;;;;;6.10;2.13;;;19.60;85.90;;;;;;5044265;28;20221;-76
2022/09/04 04:35:38;;;;;;;3.63;2.10;;;19.60;85.90;;;;;;5039121;28;20802;-76
2022/09/04 04:38:20;;;;;;;5.50;2.57;;;19.70;86.00;;;;;;5037079;28;20219;-76
2022/09/04 04:41:15;;;;;;;5.60;2.13;;;19.70;86.10;;;;;;4997946;28;20203;-77
2022/09/04 04:44:06;;;;;;;4.20;1.85;;;19.70;85.90;;;;;;5034339;28;20215;-76
2022/09/04 04:46:52;;;;;;;5.75;2.00;;;19.70;85.80;;;;;;5039341;28;20198;-76
2022/09/04 04:49:37;;;;;;;4.45;1.90;;;19.70;85.40;;;;;;5041961;28;20852;-76
2022/09/04 04:52:23;;;;;;;3.27;2.33;;;19.70;85.30;;;;;;5045187;28;20233;-76
2022/09/04 04:55:05;;;;;;;3.67;2.13;;;19.70;85.20;;;;;;5043264;28;20199;-77
2022/09/04 04:57:46;;;;;;;5.55;2.30;;;19.70;85.00;;;;;;5042027;28;20197;-75
2022/09/04 05:00:18;;;;;;;3.25;1.80;;;19.80;85.10;;;;;;5039309;28;20191;-77
2022/09/04 05:03:03;;;;;;;4.33;2.10;;;19.80;85.10;;;;;;5044678;28;20215;-75
2022/09/04 05:06:00;;;;;;;4.80;2.37;;;19.80;84.90;;;;;;5041488;28;20201;-76
2022/09/04 05:08:40;;;;;;;5.33;2.30;;;19.80;84.90;;;;;;5036848;28;20210;-75
2022/09/04 05:11:24;;;;;;;3.53;1.97;;;19.80;84.70;;;;;;5040766;28;20249;-75
2022/09/04 05:14:04;;;;;;;5.00;2.33;;;19.80;84.70;;;;;;5043107;28;20191;-76
2022/09/04 05:16:46;;;;;;;4.57;2.33;;;19.90;84.60;;;;;;5044804;28;20228;-76
2022/09/04 05:19:31;;;;;;;5.93;2.30;;;19.90;84.40;;;;;;5041405;28;20195;-77
2022/09/04 05:22:09;;;;;;;4.68;2.05;;;19.90;84.40;;;;;;5040279;28;20211;-77
2022/09/04 05:24:44;;;;;;;4.28;2.33;;;19.90;84.40;;;;;;5046229;28;20226;-76
2022/09/04 05:27:56;;;;;;;4.50;2.53;;;19.90;84.50;;;;;;5037372;28;20270;-76
2022/09/04 05:30:36;;;;;;;4.17;2.27;;;19.90;84.60;;;;;;5027805;28;20202;-76
2022/09/04 05:33:15;;;;;;;4.27;2.13;;;20.00;84.60;;;;;;5044558;28;20198;-77
2022/09/04 05:35:52;;;;;;;4.28;2.25;;;20.00;84.60;;;;;;5041526;28;20564;-76
2022/09/04 05:38:31;;;;;;;4.73;2.57;;;20.00;84.60;;;;;;5043920;28;20298;-76
2022/09/04 05:41:09;;;;;;;5.03;2.97;;;20.00;84.60;;;;;;5039842;28;20488;-77
2022/09/04 05:43:53;;;;;;;5.70;2.15;;;20.00;84.40;;;;;;5041332;28;20324;-78
2022/09/04 05:46:38;;;;;;;4.00;2.07;;;20.10;84.50;;;;;;5040868;28;20559;-75
2022/09/04 05:49:19;;;;;;;4.65;2.30;;;20.10;84.50;;;;;;5038170;28;20191;-77
2022/09/04 05:52:03;;;;;;;3.33;2.10;;;20.10;84.40;;;;;;5041455;28;21071;-76
2022/09/04 05:54:59;;;;;;;3.65;1.98;;;20.10;84.10;;;;;;5039490;28;20744;-75
2022/09/04 05:57:41;;;;;;;6.22;2.60;;;20.10;84.10;;;;;;5033512;28;20203;-76
2022/09/04 06:00:15;;;;;;;3.70;2.20;;;20.20;84.10;;;;;;5037551;28;20191;-76
2022/09/04 06:03:25;;;;;;;3.80;2.28;;;20.20;84.00;;;;;;5041053;28;20804;-76
2022/09/04 06:06:10;;;;;;;3.72;1.98;;;20.20;83.70;;;;;;5002630;28;20195;-76
2022/09/04 06:09:09;;;;;;;4.78;2.22;;;20.20;83.70;;;;;;5045095;28;20195;-76
2022/09/04 06:11:51;;;;;;;4.88;2.60;;;20.20;83.70;;;;;;5026277;28;20202;-76
2022/09/04 06:14:42;;;;;;;4.00;2.60;;;20.20;83.70;;;;;;5034941;28;20722;-76
2022/09/04 06:17:41;;;;;;;7.50;2.53;;;20.30;83.70;;;;;;5008836;28;20210;-77
2022/09/04 06:20:28;;;;;;;6.53;2.00;;;20.30;83.60;;;;;;5028821;28;20200;-76
2022/09/04 06:23:22;;;;;;;6.38;2.33;;;20.40;83.60;;;;;;5034986;28;20616;-75
2022/09/04 06:26:15;;;;;;;7.03;2.20;;;20.30;83.30;;;;;;5028925;28;20195;-74
2022/09/04 06:29:07;;;;;;;4.85;1.80;;;20.40;83.10;;;;;;5035462;28;20203;-75
2022/09/04 06:32:06;;;;;;;4.50;1.85;;;20.40;83.00;;;;;;5033562;28;20225;-75
2022/09/04 06:34:52;;;;;;;3.97;1.80;;;20.40;82.80;;;;;;5038298;28;20192;-75
2022/09/04 06:37:33;;;;;;;4.10;2.10;;;20.50;82.80;;;;;;5040555;28;20198;-75
2022/09/04 06:40:15;;;;;;;7.30;2.25;;;20.50;82.70;;;;;;5038656;28;20195;-76
2022/09/04 06:42:55;;;;;;;4.75;2.13;;;20.50;82.50;;;;;;5030671;28;20207;-77
2022/09/04 06:45:36;;;;;;;5.25;2.17;;;20.50;82.50;;;;;;5037169;28;20238;-76
2022/09/04 06:48:13;;;;;;;5.78;2.63;;;20.60;82.30;;;;;;5036335;28;20668;-76
2022/09/04 06:50:55;;;;;;;6.03;2.17;;;20.60;82.20;;;;;;5038863;28;20191;-76
2022/09/04 06:53:37;;;;;;;6.07;2.72;;;20.60;82.00;;;;;;5035795;28;20206;-76
2022/09/04 06:56:25;;;;;;;3.70;1.98;;;20.60;82.00;;;;;;5041192;28;20883;-75
2022/09/04 06:59:35;;;;;;;3.90;2.42;;;20.60;82.10;;;;;;5042147;28;20619;-76
2022/09/04 07:02:17;;;;;;;5.45;2.22;;;20.60;82.20;;;;;;4937984;28;20203;-76
2022/09/04 07:05:02;;;;;;;5.10;2.17;;;20.70;82.30;;;;;;5036077;28;20292;-76
2022/09/04 07:07:43;;;;;;;3.70;2.35;;;20.70;82.00;;;;;;5037726;28;20195;-76
2022/09/04 07:10:15;;;;;;;6.38;2.95;;;20.70;82.10;;;;;;5039504;28;20204;-75
2022/09/04 07:13:14;;;;;;;5.35;2.47;;;20.70;82.20;;;;;;5037965;28;20728;-76
2022/09/04 07:16:08;;;;;;;5.95;2.78;;;20.80;82.10;;;;;;5041602;28;20191;-75
2022/09/04 07:19:01;;;;;;;3.88;2.47;;;20.80;81.90;;;;;;5038296;28;20671;-76
2022/09/04 07:21:40;;;;;;;5.05;2.40;;;20.90;82.00;;;;;;5022375;28;20221;-76
2022/09/04 07:24:19;;;;;;;7.35;2.17;;;20.90;82.00;;;;;;5042103;28;20217;-77
2022/09/04 07:26:54;;;;;;;3.80;2.22;;;20.90;81.80;;;;;;5043249;28;20191;-76
2022/09/04 07:29:33;;;;;;;4.18;2.10;;;21.00;81.70;;;;;;5040344;28;20198;-76
2022/09/04 07:32:06;;;;;;;6.55;2.45;;;21.10;81.80;;;;;;5038843;28;20189;-75
2022/09/04 07:34:44;;;;;;;5.68;2.80;;;21.10;81.70;;;;;;5036789;28;20198;-75
2022/09/04 07:37:26;;;;;;;5.05;3.03;;;21.10;81.10;;;;;;5028246;28;20198;-77
2022/09/04 07:40:08;;;;;;;4.68;2.35;;;21.20;81.10;;;;;;5038160;28;20195;-77
2022/09/04 07:42:45;;;;;;;6.45;2.42;;;21.30;81.20;;;;;;5037751;28;20221;-79
2022/09/04 07:45:24;;;;;;;4.38;2.67;;;21.30;81.20;;;;;;5037861;28;20232;-77
2022/09/04 07:48:05;;;;;;;5.03;2.33;;;21.30;81.10;;;;;;5039620;28;20190;-77
2022/09/04 07:50:39;;;;;;;5.65;2.83;;;21.40;80.70;;;;;;5037559;28;20193;-78
2022/09/04 07:53:27;;;;;;;5.38;2.75;;;21.40;80.70;;;;;;5034562;28;20188;-78
2022/09/04 07:56:02;;;;;;;6.68;2.55;;;21.50;80.80;;;;;;5039985;28;20620;-78
2022/09/04 07:58:57;;;;;;;5.40;2.53;;;21.60;80.60;;;;;;5040199;28;20225;-79
2022/09/04 08:01:51;;;;;;;5.57;2.42;;;21.60;80.60;;;;;;5039495;28;20199;-77
2022/09/04 08:04:43;;;;;;;4.05;2.30;;;21.60;80.30;;;;;;5039612;28;20206;-78
2022/09/04 08:07:20;;;;;;;5.97;2.60;;;21.70;80.30;;;;;;5031755;28;20199;-77
2022/09/04 08:10:14;;;;;;;6.25;2.83;;;21.80;80.30;;;;;;5035820;28;20689;-78
2022/09/04 08:13:04;;;;;;;5.50;2.95;;;21.80;80.00;;;;;;5040719;28;20203;-77
2022/09/04 08:15:42;;;;;;;4.65;2.70;;;21.80;80.00;;;;;;5036229;28;20282;-78
2022/09/04 08:18:23;;;;;;;6.45;3.08;;;21.80;79.70;;;;;;5039729;28;20191;-76
2022/09/04 08:21:04;;;;;;;4.85;2.78;;;21.90;79.80;;;;;;5028885;28;20206;-77
2022/09/04 08:24:02;;;;;;;5.07;2.90;;;21.90;79.70;;;;;;5033603;28;20194;-74
2022/09/04 08:26:39;;;;;;;7.80;3.03;;;22.00;79.10;;;;;;5035428;28;20812;-77
2022/09/04 08:29:25;;;;;;;11.07;2.80;;;22.00;78.70;;;;;;5037093;28;20810;-78
2022/09/04 08:32:03;;;;;;;7.00;2.60;;;22.00;78.70;;;;;;5043253;28;20662;-77
2022/09/04 08:34:58;;;;;;;5.30;2.60;;;22.10;78.60;;;;;;5035034;28;20202;-76
2022/09/04 08:37:32;;;;;;;4.97;2.90;;;22.10;78.40;;;;;;5030232;28;20494;-75
2022/09/04 08:40:28;;;;;;;5.78;2.72;;;22.10;78.60;;;;;;5036778;28;20195;-77
2022/09/04 08:43:28;;;;;;;6.13;2.55;;;22.20;78.30;;;;;;5039438;28;20249;-77
2022/09/04 08:46:37;;;;;;;7.78;3.05;;;22.20;77.60;;;;;;5033707;28;20325;-77
2022/09/04 08:49:41;;;;;;;5.78;2.83;;;22.20;77.70;;;;;;4977658;28;20789;-77
2022/09/04 08:52:26;;;;;;;7.75;3.90;;;22.20;77.80;;;;;;5038212;28;20582;-74
2022/09/04 08:55:27;;;;;;;5.90;2.72;;;22.30;78.00;;;;;;5032963;28;20191;-77
2022/09/04 08:58:31;;;;;;;5.40;3.15;;;22.30;78.00;;;;;;5036160;28;20593;-77
2022/09/04 09:01:41;;;;;;;6.53;2.58;;;22.30;78.00;;;;;;5023732;28;20660;-76
2022/09/04 09:04:43;;;;;;;6.00;2.90;;;22.40;77.90;;;;;;5038050;28;20199;-77
2022/09/04 09:07:35;;;;;;;6.05;3.03;;;22.40;77.60;;;;;;4996344;28;20206;-77
2022/09/04 09:10:35;;;;;;;6.03;3.03;;;22.40;77.70;;;;;;5011548;28;20222;-75
2022/09/04 09:13:46;;;;;;;5.47;3.00;;;22.50;77.90;;;;;;5037100;28;20210;-75
2022/09/04 09:16:22;;;;;;;4.82;2.63;;;22.60;77.80;;;;;;5039368;28;20215;-76
2022/09/04 09:19:21;;;;;;;6.68;3.08;;;22.70;77.70;;;;;;5038236;28;20198;-76
2022/09/04 09:22:09;;;;;;;4.93;3.22;;;22.70;77.70;;;;;;5017059;28;20202;-76
2022/09/04 09:25:16;;;;;;;4.70;2.75;;;22.80;77.70;;;;;;5039758;28;20286;-76
2022/09/04 09:28:12;;;;;;;5.85;3.15;;;22.90;77.30;;;;;;5038726;28;20574;-78
2022/09/04 09:31:11;;;;;;;6.72;3.47;;;23.00;77.00;;;;;;5039305;28;20218;-77
2022/09/04 09:34:12;;;;;;;8.00;3.50;;;23.00;76.80;;;;;;5033020;28;20313;-76
2022/09/04 09:37:23;;;;;;;5.30;2.90;;;23.10;76.90;;;;;;5038151;28;20195;-78
2022/09/04 09:40:27;;;;;;;7.32;2.85;;;23.20;76.70;;;;;;5041358;28;20202;-76
2022/09/04 09:43:40;;;;;;;5.97;3.30;;;23.20;76.60;;;;;;5043860;28;20558;-78
2022/09/04 09:46:40;;;;;;;4.95;2.50;;;23.20;76.10;;;;;;5031324;28;20215;-79
2022/09/04 09:50:03;;;;;;;5.82;2.88;;;23.20;76.00;;;;;;5020178;28;20232;-78
2022/09/04 09:52:57;;;;;;;8.75;3.15;;;23.30;76.10;;;;;;5041995;28;20187;-77
2022/09/04 09:55:55;;;;;;;7.50;3.80;;;23.30;76.10;;;;;;5039136;28;20209;-77
2022/09/04 09:58:51;;;;;;;5.82;3.10;;;23.50;75.90;;;;;;5037446;28;21417;-75
2022/09/04 10:01:39;;;;;;;5.60;2.80;;;23.50;75.70;;;;;;5000259;28;20207;-76
2022/09/04 10:04:49;;;;;;;5.22;2.85;;;23.50;75.40;;;;;;5033189;28;20195;-77
2022/09/04 10:07:51;;;;;;;5.30;2.70;;;23.50;75.20;;;;;;4984783;28;20590;-77
2022/09/04 10:10:55;;;;;;;5.40;2.92;;;23.50;74.70;;;;;;5036527;28;20330;-77
2022/09/04 10:13:51;;;;;;;5.57;2.95;;;23.50;74.80;;;;;;5030330;28;20213;-77
2022/09/04 10:16:53;;;;;;;4.38;2.60;;;23.40;74.50;;;;;;4993958;28;20203;-77
2022/09/04 10:19:51;;;;;;;6.07;2.72;;;23.40;74.70;;;;;;5036219;28;20282;-77
2022/09/04 10:22:56;;;;;;;6.18;2.75;;;23.40;74.90;;;;;;5040857;28;20704;-75
2022/09/04 10:26:04;;;;;;;4.32;2.67;;;23.40;75.00;;;;;;5041673;28;20230;-77
2022/09/04 10:29:10;;;;;;;4.90;2.78;;;23.30;74.70;;;;;;5037894;28;20210;-76
2022/09/04 10:32:03;;;;;;;4.70;2.70;;;23.30;74.90;;;;;;5034144;28;20195;-77
2022/09/04 10:35:03;;;;;;;4.65;2.67;;;23.30;74.90;;;;;;4994612;28;20838;-76
2022/09/04 10:37:51;;;;;;;5.78;2.80;;;23.30;74.90;;;;;;5037411;28;20191;-77
2022/09/04 10:40:35;;;;;;;6.07;3.00;;;23.30;74.30;;;;;;5042882;28;20677;-77
2022/09/04 10:43:39;;;;;;;8.90;3.25;;;23.30;74.40;;;;;;5042600;28;20199;-77
2022/09/04 10:46:21;;;;;;;6.78;2.92;;;23.30;74.50;;;;;;5031842;28;20222;-77
2022/09/04 10:49:09;;;;;;;6.25;3.30;;;23.40;74.70;;;;;;5049015;28;20187;-77
2022/09/04 10:52:09;;;;;;;5.97;3.22;;;23.40;73.90;;;;;;5038730;28;20913;-78
2022/09/04 10:55:13;;;;;;;4.45;2.95;;;23.40;73.90;;;;;;5045972;28;20187;-76
2022/09/04 10:58:07;;;;;;;4.28;2.35;;;23.30;73.60;;;;;;5034920;28;20195;-76
2022/09/04 11:00:48;;;;;;;3.92;2.20;;;23.30;73.70;;;;;;5042487;28;20203;-77
2022/09/04 11:03:42;;;;;;;4.65;2.45;;;23.30;74.00;;;;;;5042163;28;20281;-77
2022/09/04 11:06:48;;;;;;;4.75;2.88;;;23.30;74.10;;;;;;5039268;28;20754;-78
2022/09/04 11:09:41;;;;;;;7.07;3.58;;;23.40;74.30;;;;;;5044264;28;20346;-77
2022/09/04 11:12:39;;;;;;;6.43;2.90;;;23.40;74.30;;;;;;5036941;28;20195;-77
2022/09/04 11:15:49;;;;;;;3.90;2.30;;;23.40;74.30;;;;;;5034591;28;20202;-76
2022/09/04 11:18:44;;;;;;;6.55;3.00;;;23.50;74.20;;;;;;5004006;28;20191;-77
2022/09/04 11:21:46;;;;;;;3.55;2.10;;;23.50;74.30;;;;;;5020813;28;20206;-78
2022/09/04 11:25:00;;;;;;;6.07;3.15;;;23.60;74.40;;;;;;5035372;28;20199;-75
2022/09/04 11:28:00;;;;;;;4.97;2.90;;;23.70;74.10;;;;;;5043274;28;20219;-77
2022/09/04 11:30:38;;;;;;;4.63;2.47;;;23.70;74.00;;;;;;5031332;28;20195;-77
2022/09/04 11:33:47;;;;;;;5.95;2.72;;;23.70;73.90;;;;;;5039248;28;20876;-77
2022/09/04 11:36:42;;;;;;;7.25;3.15;;;23.80;73.80;;;;;;5039226;28;20684;-75
2022/09/04 11:39:49;;;;;;;4.57;2.80;;;23.70;73.10;;;;;;5036891;28;20740;-76
2022/09/04 11:42:38;;;;;;;4.95;3.30;;;23.70;73.30;;;;;;4988294;28;20253;-77
2022/09/04 11:45:41;;;;;;;7.05;2.90;;;23.70;73.30;;;;;;5026247;28;20841;-77
2022/09/04 11:48:35;;;;;;;5.90;2.35;;;23.70;73.00;;;;;;5034839;28;20216;-76
2022/09/04 11:51:21;;;;;;;5.80;3.10;;;23.70;73.00;;;;;;5024064;28;20199;-77
2022/09/04 11:54:24;;;;;;;3.88;2.30;;;23.60;73.00;;;;;;5034381;28;20191;-75
2022/09/04 11:57:15;;;;;;;5.25;3.03;;;23.60;72.80;;;;;;5018065;28;20227;-78
2022/09/04 12:00:02;;;;;;;6.05;3.25;;;23.50;73.00;;;;;;5022039;28;20583;-78
2022/09/04 12:03:12;;;;;;;7.75;3.20;;;23.50;73.10;;;;;;5020874;28;20938;-79
2022/09/04 12:05:59;;;;;;;5.30;2.90;;;23.50;73.30;;;;;;5014058;28;20214;-77
2022/09/04 12:08:45;;;;;;;49.88;22.50;;;23.50;73.00;;;;;;5024642;28;20198;-77
2022/09/04 12:11:49;;;;;;;15.15;6.85;;;23.50;73.00;;;;;;5021560;28;20210;-79
2022/09/04 12:14:49;;;;;;;26.27;13.32;;;23.40;72.80;;;;;;5034409;28;20214;-79
2022/09/04 12:17:55;;;;;;;12.48;7.32;;;23.40;73.00;;;;;;5019038;28;20200;-78
2022/09/04 12:20:44;;;;;;;8.75;3.90;;;23.40;73.10;;;;;;5029531;28;20195;-77
2022/09/04 12:23:26;;;;;;;4.57;2.75;;;23.40;73.20;;;;;;5039782;28;20566;-80
2022/09/04 12:26:39;;;;;;;5.05;3.10;;;23.50;73.30;;;;;;5019966;28;20203;-78
2022/09/04 12:29:57;;;;;;;5.32;2.70;;;23.50;73.30;;;;;;4994185;28;20247;-78
2022/09/04 12:32:53;;;;;;;5.28;2.45;;;23.50;73.10;;;;;;5024464;28;20198;-80
2022/09/04 12:35:49;;;;;;;7.57;4.07;;;23.60;72.90;;;;;;5019572;28;20811;-78
2022/09/04 12:38:54;;;;;;;4.38;2.40;;;23.60;73.10;;;;;;5024271;28;20435;-79
2022/09/04 12:41:32;;;;;;;5.28;2.75;;;23.70;72.40;;;;;;5026000;28;20195;-78
2022/09/04 12:44:10;;;;;;;5.82;2.97;;;23.70;72.50;;;;;;5040127;28;20202;-80
2022/09/04 12:46:59;;;;;;;6.28;2.58;;;23.70;72.60;;;;;;5034560;28;20222;-79
2022/09/04 12:49:59;;;;;;;5.93;3.47;;;23.80;72.20;;;;;;5033816;28;20194;-78
2022/09/04 12:52:42;;;;;;;6.30;4.13;;;23.80;71.70;;;;;;4986766;28;20202;-78
2022/09/04 12:55:16;;;;;;;8.65;4.97;;;23.80;71.80;;;;;;5039835;28;20199;-77
2022/09/04 12:58:01;;;;;;;5.07;2.38;;;23.90;71.90;;;;;;5039759;28;20921;-77
2022/09/04 13:00:39;;;;;;;11.27;6.55;;;23.90;71.90;;;;;;5031148;28;20195;-76
2022/09/04 13:03:27;;;;;;;5.07;2.97;;;24.00;71.90;;;;;;5045961;28;20203;-77
2022/09/04 13:06:11;;;;;;;5.05;2.90;;;24.00;71.80;;;;;;5040685;28;20198;-76
2022/09/04 13:08:51;;;;;;;6.68;2.67;;;24.00;71.40;;;;;;5039353;28;20214;-74
2022/09/04 13:11:34;;;;;;;7.25;2.60;;;24.00;71.20;;;;;;5041851;28;20187;-76
2022/09/04 13:14:17;;;;;;;5.35;3.00;;;24.10;71.30;;;;;;5046017;28;20195;-75
2022/09/04 13:16:57;;;;;;;6.47;2.95;;;24.10;71.20;;;;;;5042473;28;20198;-76
2022/09/04 13:19:36;;;;;;;5.40;2.47;;;24.10;71.20;;;;;;5036856;28;20191;-75
2022/09/04 13:22:20;;;;;;;5.45;2.60;;;24.10;71.40;;;;;;5040006;28;20191;-76
2022/09/04 13:24:57;;;;;;;5.45;2.60;;;24.20;71.50;;;;;;5039184;28;20293;-77
2022/09/04 13:27:39;;;;;;;4.28;2.45;;;24.20;71.30;;;;;;5043860;28;20207;-76
2022/09/04 13:30:20;;;;;;;5.28;2.25;;;24.20;70.80;;;;;;5045918;28;20645;-77
2022/09/04 13:33:12;;;;;;;6.05;3.35;;;24.10;70.60;;;;;;5037822;28;20483;-76
2022/09/04 13:35:57;;;;;;;5.35;2.78;;;24.20;70.50;;;;;;5039367;28;20199;-77
2022/09/04 13:38:59;;;;;;;5.55;2.63;;;24.10;70.50;;;;;;5039894;28;20218;-77
2022/09/04 13:41:49;;;;;;;6.28;3.13;;;24.10;70.80;;;;;;4999536;28;20201;-77
2022/09/04 13:44:44;;;;;;;4.47;2.53;;;24.20;70.90;;;;;;5045276;28;20196;-77
2022/09/04 13:47:20;;;;;;;5.03;2.60;;;24.20;70.70;;;;;;5038822;28;20214;-77
2022/09/04 13:50:08;;;;;;;7.40;2.90;;;24.20;70.80;;;;;;5053830;28;20297;-78
2022/09/04 13:52:42;;;;;;;4.75;2.60;;;24.20;70.90;;;;;;5043772;28;20252;-77
2022/09/04 13:55:18;;;;;;;4.32;2.58;;;24.20;71.00;;;;;;5041784;28;20617;-79
2022/09/04 13:57:56;;;;;;;4.57;2.63;;;24.20;70.50;;;;;;5036118;28;20206;-79
2022/09/04 14:00:25;;;;;;;4.10;2.35;;;24.10;70.50;;;;;;5043372;28;20301;-76
2022/09/04 14:03:03;;;;;;;5.07;2.85;;;24.10;70.60;;;;;;5040184;28;20212;-78
2022/09/04 14:05:36;;;;;;;4.18;2.35;;;24.10;70.50;;;;;;5034575;28;20210;-76
2022/09/04 14:08:10;;;;;;;4.50;2.70;;;24.10;70.50;;;;;;5041636;28;20214;-78
2022/09/04 14:11:00;;;;;;;5.50;2.50;;;24.10;70.10;;;;;;5042156;28;20210;-77
2022/09/04 14:13:44;;;;;;;4.03;2.60;;;24.00;70.00;;;;;;5042715;28;20199;-77
2022/09/04 14:16:14;;;;;;;5.68;3.20;;;24.00;69.90;;;;;;5040718;28;20195;-78
2022/09/04 14:19:00;;;;;;;4.43;2.58;;;23.90;69.70;;;;;;5031028;28;20219;-76
2022/09/04 14:21:57;;;;;;;4.60;3.03;;;23.90;70.00;;;;;;5034767;28;20227;-78
2022/09/04 14:24:34;;;;;;;4.75;2.72;;;23.90;70.20;;;;;;5039246;28;20711;-81